createdAt,value
2018-01-03T00:01:27.977Z,7.10
2018-01-03T00:03:56.210Z,7.20
2018-01-03T00:06:24.438Z,7.20
2018-01-03T00:08:53.416Z,7.20
2018-01-03T00:11:22.422Z,7.20
2018-01-03T00:13:51.409Z,7.20
2018-01-03T00:16:19.724Z,7.10
2018-01-03T00:18:47.981Z,7.20
2018-01-03T00:21:16.215Z,7.20
2018-01-03T00:23:44.422Z,7.20
2018-01-03T00:26:12.909Z,7.20
2018-01-03T00:28:41.137Z,7.20
2018-01-03T00:31:09.346Z,7.30
2018-01-03T00:33:38.358Z,7.30
2018-01-03T00:36:07.318Z,7.30
2018-01-03T00:38:36.322Z,7.40
2018-01-03T00:41:05.301Z,7.40
2018-01-03T00:43:33.521Z,7.30
2018-01-03T00:46:01.752Z,7.30
2018-01-03T00:48:30.745Z,7.40
2018-01-03T00:50:59.741Z,7.40
2018-01-03T00:53:28.729Z,7.40
2018-01-03T00:55:57.721Z,7.40
2018-01-03T00:58:25.932Z,7.40
2018-01-03T01:00:54.385Z,7.40
2018-01-03T01:03:23.369Z,7.40
2018-01-03T01:05:52.382Z,7.50
2018-01-03T01:08:21.357Z,7.50
2018-01-03T01:10:50.348Z,7.50
2018-01-03T01:13:19.345Z,7.50
2018-01-03T01:15:47.565Z,7.50
2018-01-03T01:18:16.461Z,7.50
2018-01-03T01:20:44.688Z,7.50
2018-01-03T01:23:13.709Z,7.50
2018-01-03T01:25:41.949Z,7.50
2018-01-03T01:28:10.484Z,7.50
2018-01-03T01:30:38.724Z,7.50
2018-01-03T01:33:06.941Z,7.50
2018-01-03T01:35:35.181Z,7.50
2018-01-03T01:38:03.458Z,7.60
2018-01-03T01:40:31.664Z,7.60
2018-01-03T01:42:59.904Z,7.50
2018-01-03T01:45:28.115Z,7.60
2018-01-03T01:47:56.742Z,7.50
2018-01-03T01:50:25.030Z,7.50
2018-01-03T01:52:54.033Z,7.50
2018-01-03T01:55:22.257Z,7.40
2018-01-03T01:57:50.465Z,7.50
2018-01-03T02:00:19.469Z,7.40
2018-01-03T02:02:47.683Z,7.40
2018-01-03T02:05:15.909Z,7.40
2018-01-03T02:07:44.137Z,7.40
2018-01-03T02:10:12.357Z,7.40
2018-01-03T02:12:40.569Z,7.40
2018-01-03T02:15:08.805Z,7.40
2018-01-03T02:17:37.001Z,7.40
2018-01-03T02:20:05.208Z,7.30
2018-01-03T02:22:33.434Z,7.30
2018-01-03T02:25:02.442Z,7.20
2018-01-03T02:27:30.889Z,7.10
2018-01-03T02:29:59.888Z,7.10
2018-01-03T02:32:28.895Z,7.00
2018-01-03T02:34:57.112Z,7.00
2018-01-03T02:37:25.331Z,7.00
2018-01-03T02:39:54.318Z,7.00
2018-01-03T02:42:23.297Z,6.90
2018-01-03T02:44:52.617Z,6.90
2018-01-03T02:47:21.598Z,6.80
2018-01-03T02:49:50.622Z,6.80
2018-01-03T02:52:18.833Z,6.70
2018-01-03T02:54:47.080Z,6.80
2018-01-03T02:57:15.301Z,6.70
2018-01-03T02:59:43.621Z,6.70
2018-01-03T03:02:11.885Z,6.70
2018-01-03T03:04:40.110Z,6.70
2018-01-03T03:07:08.433Z,6.70
2018-01-03T03:09:36.645Z,6.60
2018-01-03T03:12:04.876Z,6.60
2018-01-03T03:14:33.168Z,6.70
2018-01-03T03:17:01.389Z,6.60
2018-01-03T03:19:31.049Z,6.70
2018-01-03T03:21:59.284Z,6.60
2018-01-03T03:24:27.600Z,6.60
2018-01-03T03:26:55.802Z,6.60
2018-01-03T03:29:24.048Z,6.60
2018-01-03T03:31:52.257Z,6.60
2018-01-03T03:34:22.201Z,6.60
2018-01-03T03:36:50.404Z,6.60
2018-01-03T03:39:18.639Z,6.60
2018-01-03T03:41:46.857Z,6.60
2018-01-03T03:44:15.320Z,6.60
2018-01-03T03:46:44.078Z,6.60
2018-01-03T03:49:12.281Z,6.70
2018-01-03T03:51:41.268Z,6.60
2018-01-03T03:54:09.477Z,6.60
2018-01-03T03:56:37.701Z,6.60
2018-01-03T03:59:05.925Z,6.60
2018-01-03T04:01:35.225Z,6.70
2018-01-03T04:04:03.449Z,6.70
2018-01-03T04:06:31.672Z,6.70
2018-01-03T04:08:59.893Z,6.70
2018-01-03T04:11:28.441Z,6.80
2018-01-03T04:13:56.656Z,6.80
2018-01-03T04:16:25.650Z,6.80
2018-01-03T04:18:55.382Z,6.70
2018-01-03T04:21:24.356Z,6.80
2018-01-03T04:23:53.376Z,6.70
2018-01-03T04:26:22.353Z,6.70
2018-01-03T04:28:51.350Z,6.80
2018-01-03T04:31:20.325Z,6.80
2018-01-03T04:33:48.549Z,6.70
2018-01-03T04:36:16.762Z,6.80
2018-01-03T04:38:45.384Z,6.80
2018-01-03T04:41:13.941Z,6.70
2018-01-03T04:43:42.430Z,6.80
2018-01-03T04:46:10.649Z,6.80
2018-01-03T04:48:38.876Z,6.80
2018-01-03T04:51:07.191Z,6.80
2018-01-03T04:53:35.414Z,6.70
2018-01-03T04:56:03.725Z,6.70
2018-01-03T04:58:31.937Z,6.70
2018-01-03T05:01:00.161Z,6.70
2018-01-03T05:03:28.393Z,6.70
2018-01-03T05:05:56.626Z,6.70
2018-01-03T05:08:25.187Z,6.70
2018-01-03T05:10:54.186Z,6.80
2018-01-03T05:13:23.165Z,6.90
2018-01-03T05:15:52.157Z,6.90
2018-01-03T05:18:20.369Z,6.90
2018-01-03T05:20:48.633Z,6.90
2018-01-03T05:23:16.865Z,7.00
2018-01-03T05:25:45.073Z,7.10
2018-01-03T05:28:14.079Z,7.10
2018-01-03T05:30:42.292Z,7.10
2018-01-03T05:33:10.498Z,7.20
2018-01-03T05:35:38.722Z,7.20
2018-01-03T05:38:06.949Z,7.20
2018-01-03T05:40:35.939Z,7.30
2018-01-03T05:43:04.138Z,7.20
2018-01-03T05:45:32.369Z,7.30
2018-01-03T05:48:01.373Z,7.40
2018-01-03T05:50:30.377Z,7.40
2018-01-03T05:52:59.350Z,7.50
2018-01-03T05:55:27.601Z,7.50
2018-01-03T05:57:55.854Z,7.60
2018-01-03T06:00:24.297Z,7.60
2018-01-03T06:02:53.287Z,7.70
2018-01-03T06:05:22.276Z,7.80
2018-01-03T06:07:51.280Z,7.80
2018-01-03T06:10:20.272Z,7.80
2018-01-03T06:12:49.665Z,7.90
2018-01-03T06:15:18.637Z,7.90
2018-01-03T06:17:46.861Z,7.90
2018-01-03T06:20:15.093Z,8.00
2018-01-03T06:22:43.328Z,8.00
2018-01-03T06:25:14.553Z,8.00
2018-01-03T06:27:42.802Z,8.10
2018-01-03T06:30:11.026Z,8.10
2018-01-03T06:32:39.221Z,8.20
2018-01-03T06:35:07.510Z,8.20
2018-01-03T06:37:35.690Z,8.20
2018-01-03T06:40:03.905Z,8.20
2018-01-03T06:42:32.131Z,8.20
2018-01-03T06:45:00.565Z,8.30
2018-01-03T06:47:28.780Z,8.30
2018-01-03T06:49:57.037Z,8.30
2018-01-03T06:52:25.253Z,8.30
2018-01-03T06:54:54.553Z,8.30
2018-01-03T06:57:22.777Z,8.30
2018-01-03T06:59:50.988Z,8.30
2018-01-03T07:02:19.214Z,8.30
2018-01-03T07:04:47.430Z,8.30
2018-01-03T07:07:15.673Z,8.30
2018-01-03T07:09:43.856Z,8.30
2018-01-03T07:12:12.089Z,8.30
2018-01-03T07:14:40.302Z,8.30
2018-01-03T07:17:08.529Z,8.30
2018-01-03T07:19:36.874Z,8.30
2018-01-03T07:22:05.093Z,8.30
2018-01-03T07:24:33.324Z,8.20
2018-01-03T07:27:01.555Z,8.20
2018-01-03T07:29:29.781Z,8.20
2018-01-03T07:31:57.993Z,8.20
2018-01-03T07:34:26.214Z,8.20
2018-01-03T07:36:54.433Z,8.20
2018-01-03T07:39:22.659Z,8.10
2018-01-03T07:41:50.873Z,8.10
2018-01-03T07:44:20.170Z,8.00
2018-01-03T07:46:49.152Z,8.00
2018-01-03T07:49:17.361Z,8.00
2018-01-03T07:51:45.577Z,8.00
2018-01-03T07:54:13.785Z,7.90
2018-01-03T07:56:42.774Z,7.90
2018-01-03T07:59:10.978Z,7.90
2018-01-03T08:01:39.196Z,7.90
2018-01-03T08:04:07.717Z,7.90
2018-01-03T08:06:36.698Z,7.90
2018-01-03T08:09:05.672Z,7.90
2018-01-03T08:11:33.941Z,7.80
2018-01-03T08:14:02.124Z,7.90
2018-01-03T08:16:30.333Z,8.00
2018-01-03T08:18:58.562Z,8.00
2018-01-03T08:21:26.774Z,7.90
2018-01-03T08:23:55.761Z,8.00
2018-01-03T08:26:24.749Z,8.10
2018-01-03T08:28:53.746Z,8.10
2018-01-03T08:31:22.725Z,8.10
2018-01-03T08:33:50.941Z,8.10
2018-01-03T08:36:19.146Z,8.10
2018-01-03T08:38:47.353Z,8.00
2018-01-03T08:41:16.353Z,7.90
2018-01-03T08:43:45.326Z,7.90
2018-01-03T08:46:13.574Z,7.90
2018-01-03T08:48:41.790Z,8.00
2018-01-03T08:51:11.091Z,8.00
2018-01-03T08:53:40.064Z,8.00
2018-01-03T08:56:08.285Z,8.00
2018-01-03T08:58:36.501Z,8.00
2018-01-03T09:01:04.725Z,8.10
2018-01-03T09:03:32.962Z,8.20
2018-01-03T09:06:01.459Z,8.20
2018-01-03T09:08:30.451Z,8.20
2018-01-03T09:10:59.429Z,8.40
2018-01-03T09:13:27.654Z,8.30
2018-01-03T09:15:55.867Z,8.50
2018-01-03T09:18:24.097Z,8.70
2018-01-03T09:20:52.321Z,8.90
2018-01-03T09:23:20.545Z,9.00
2018-01-03T09:25:48.745Z,9.10
2018-01-03T09:28:16.994Z,9.20
2018-01-03T09:30:45.200Z,9.20
2018-01-03T09:33:13.402Z,9.20
2018-01-03T09:35:41.625Z,9.40
2018-01-03T09:38:09.838Z,9.50
2018-01-03T09:40:38.070Z,9.50
2018-01-03T09:43:06.282Z,9.60
2018-01-03T09:45:34.818Z,9.50
2018-01-03T09:48:04.086Z,8.50
2018-01-03T09:50:33.101Z,7.70
2018-01-03T09:53:01.321Z,7.60
2018-01-03T09:55:29.835Z,7.00
2018-01-03T09:57:58.825Z,6.40
2018-01-03T10:00:27.023Z,6.30
2018-01-03T10:02:55.999Z,6.30
2018-01-03T10:05:24.995Z,6.30
2018-01-03T10:07:53.194Z,6.20
2018-01-03T10:10:21.398Z,6.40
2018-01-03T10:12:49.631Z,6.50
2018-01-03T10:15:17.846Z,6.60
2018-01-03T10:17:46.841Z,6.80
2018-01-03T10:20:15.070Z,6.70
2018-01-03T10:22:43.317Z,6.90
2018-01-03T10:25:12.309Z,7.10
2018-01-03T10:27:41.297Z,7.20
2018-01-03T10:30:09.532Z,7.20
2018-01-03T10:32:37.733Z,7.20
2018-01-03T10:35:05.971Z,7.30
2018-01-03T10:37:34.182Z,7.20
2018-01-03T10:40:02.400Z,7.20
2018-01-03T10:42:30.629Z,7.10
2018-01-03T10:44:58.973Z,7.10
2018-01-03T10:47:27.201Z,7.00
2018-01-03T10:49:55.437Z,7.00
2018-01-03T10:52:23.654Z,7.00
2018-01-03T10:54:52.665Z,7.00
2018-01-03T10:57:21.657Z,7.00
2018-01-03T10:59:50.635Z,7.10
2018-01-03T11:02:19.633Z,7.20
2018-01-03T11:04:48.609Z,7.30
2018-01-03T11:07:17.623Z,7.40
2018-01-03T11:09:46.626Z,7.50
2018-01-03T11:12:15.601Z,7.60
2018-01-03T11:14:43.809Z,7.50
2018-01-03T11:17:12.034Z,7.60
2018-01-03T11:19:40.245Z,7.70
2018-01-03T11:22:08.475Z,7.80
2018-01-03T11:24:36.695Z,7.80
2018-01-03T11:27:04.929Z,7.90
2018-01-03T11:29:33.156Z,8.00
2018-01-03T11:32:01.363Z,8.00
2018-01-03T11:34:29.581Z,8.00
2018-01-03T11:36:57.800Z,8.00
2018-01-03T11:39:26.421Z,8.00
2018-01-03T11:41:55.414Z,8.00
2018-01-03T11:44:23.637Z,7.90
2018-01-03T11:46:51.854Z,8.00
2018-01-03T11:49:20.093Z,8.10
2018-01-03T11:51:48.381Z,8.10
2018-01-03T11:54:16.611Z,8.10
2018-01-03T11:56:44.837Z,8.10
2018-01-03T11:59:12.552Z,8.10
2018-01-03T12:01:40.788Z,8.20
2018-01-03T12:04:09.005Z,8.20
2018-01-03T12:06:37.253Z,8.30
2018-01-03T12:09:06.243Z,8.30
2018-01-03T12:11:35.225Z,8.30
2018-01-03T12:14:04.209Z,8.20
2018-01-03T12:16:32.457Z,8.20
2018-01-03T12:19:00.658Z,8.20
2018-01-03T12:21:28.856Z,8.30
2018-01-03T12:23:57.849Z,8.40
2018-01-03T12:26:27.242Z,8.40
2018-01-03T12:28:56.655Z,8.50
2018-01-03T12:31:25.639Z,8.50
2018-01-03T12:33:54.634Z,8.50
2018-01-03T12:36:23.621Z,8.50
2018-01-03T12:38:52.617Z,8.50
2018-01-03T12:41:21.598Z,8.50
2018-01-03T12:43:50.611Z,8.40
2018-01-03T12:46:19.585Z,8.40
2018-01-03T12:48:48.604Z,8.30
2018-01-03T12:51:17.578Z,8.20
2018-01-03T12:53:45.857Z,8.10
2018-01-03T12:56:14.967Z,8.10
2018-01-03T12:58:44.773Z,8.10
2018-01-03T13:01:13.576Z,8.10
2018-01-03T13:03:41.931Z,8.00
2018-01-03T13:06:10.518Z,7.90
2018-01-03T13:08:38.773Z,7.70
2018-01-03T13:11:06.984Z,7.60
2018-01-03T13:13:36.368Z,7.50
2018-01-03T13:16:05.639Z,7.40
2018-01-03T13:18:34.005Z,7.40
2018-01-03T13:21:02.248Z,7.30
2018-01-03T13:23:30.459Z,7.30
2018-01-03T13:25:58.675Z,7.20
2018-01-03T13:28:27.881Z,7.20
2018-01-03T13:30:56.121Z,7.10
2018-01-03T13:33:24.333Z,7.10
2018-01-03T13:35:52.550Z,7.10
2018-01-03T13:38:20.791Z,7.10
2018-01-03T13:40:49.005Z,7.10
2018-01-03T13:43:17.233Z,7.10
2018-01-03T13:45:45.453Z,7.20
2018-01-03T13:48:13.886Z,7.20
2018-01-03T13:50:43.765Z,7.00
2018-01-03T13:53:12.761Z,7.00
2018-01-03T13:55:41.745Z,7.00
2018-01-03T13:58:09.965Z,7.00
2018-01-03T14:00:38.196Z,7.00
2018-01-03T14:03:06.412Z,7.00
2018-01-03T14:05:34.626Z,7.00
2018-01-03T14:08:02.842Z,7.00
2018-01-03T14:10:31.085Z,7.10
2018-01-03T14:12:59.311Z,7.10
2018-01-03T14:15:27.537Z,7.20
2018-01-03T14:17:55.758Z,7.20
2018-01-03T14:20:24.038Z,7.30
2018-01-03T14:22:53.002Z,7.30
2018-01-03T14:25:21.986Z,7.30
2018-01-03T14:27:51.291Z,7.30
2018-01-03T14:30:19.518Z,7.30
2018-01-03T14:32:47.746Z,7.40
2018-01-03T14:35:15.971Z,7.40
2018-01-03T14:37:44.204Z,7.40
2018-01-03T14:40:12.429Z,7.40
2018-01-03T14:42:40.675Z,7.30
2018-01-03T14:45:08.897Z,7.30
2018-01-03T14:47:37.131Z,7.20
2018-01-03T14:50:05.362Z,7.20
2018-01-03T14:52:33.671Z,7.20
2018-01-03T14:55:02.618Z,7.10
2018-01-03T14:57:30.841Z,7.10
2018-01-03T14:59:59.080Z,7.10
2018-01-03T15:02:27.297Z,7.10
2018-01-03T15:04:55.520Z,7.10
2018-01-03T15:07:24.505Z,7.10
2018-01-03T15:09:53.905Z,7.10
2018-01-03T15:12:22.114Z,7.10
2018-01-03T15:14:50.444Z,7.10
2018-01-03T15:17:19.921Z,7.00
2018-01-03T15:19:48.142Z,7.00
2018-01-03T15:22:16.365Z,6.90
2018-01-03T15:24:44.642Z,6.80
2018-01-03T15:27:12.849Z,6.80
2018-01-03T15:29:41.073Z,6.70
2018-01-03T15:32:09.301Z,6.70
2018-01-03T15:34:37.798Z,6.70
2018-01-03T15:37:06.782Z,6.60
2018-01-03T15:39:36.153Z,6.60
2018-01-03T15:42:04.420Z,6.50
2018-01-03T15:44:32.635Z,6.50
2018-01-03T15:47:00.862Z,6.50
2018-01-03T15:49:29.093Z,6.50
2018-01-03T15:51:58.108Z,6.50
2018-01-03T15:54:26.325Z,6.40
2018-01-03T15:56:54.553Z,6.40
2018-01-03T15:59:22.772Z,6.40
2018-01-03T16:01:50.990Z,6.40
2018-01-03T16:04:19.991Z,6.40
2018-01-03T16:06:48.197Z,6.30
2018-01-03T16:09:16.454Z,6.30
2018-01-03T16:11:44.657Z,6.40
2018-01-03T16:14:12.889Z,6.30
2018-01-03T16:16:41.359Z,6.40
2018-01-03T16:19:10.345Z,6.30
2018-01-03T16:21:39.329Z,6.30
2018-01-03T16:24:08.330Z,6.30
2018-01-03T16:26:37.629Z,6.30
2018-01-03T16:29:05.964Z,6.20
2018-01-03T16:31:34.201Z,6.20
2018-01-03T16:34:02.401Z,6.20
2018-01-03T16:36:31.556Z,6.20
2018-01-03T16:39:00.818Z,6.20
2018-01-03T16:41:30.150Z,6.10
2018-01-03T16:43:58.684Z,6.10
2018-01-03T16:46:26.959Z,6.10
2018-01-03T16:48:56.515Z,6.10
2018-01-03T16:51:31.565Z,6.10
2018-01-03T16:54:01.195Z,6.00
2018-01-03T16:56:30.470Z,6.10
2018-01-03T16:58:58.695Z,6.00
2018-01-03T17:01:26.962Z,6.10
2018-01-03T17:03:56.034Z,6.10
2018-01-03T17:06:24.925Z,6.10
2018-01-03T17:08:53.374Z,6.10
2018-01-03T17:11:21.617Z,6.10
2018-01-03T17:13:49.854Z,6.10
2018-01-03T17:16:18.078Z,6.20
2018-01-03T17:18:46.318Z,6.20
2018-01-03T17:21:14.546Z,6.30
2018-01-03T17:23:42.822Z,6.30
2018-01-03T17:26:11.079Z,6.30
2018-01-03T17:28:39.701Z,6.40
2018-01-03T17:31:08.206Z,6.40
2018-01-03T17:33:37.183Z,6.50
2018-01-03T17:36:05.516Z,6.50
2018-01-03T17:38:35.675Z,6.50
2018-01-03T17:41:04.365Z,6.60
2018-01-03T17:43:33.641Z,6.70
2018-01-03T17:46:03.566Z,6.80
2018-01-03T17:48:32.354Z,6.70
2018-01-03T17:51:00.868Z,6.90
2018-01-03T17:53:29.428Z,6.90
2018-01-03T17:55:58.049Z,6.90
2018-01-03T17:58:27.152Z,7.00
2018-01-03T18:00:55.687Z,6.90
2018-01-03T18:03:25.090Z,6.90
2018-01-03T18:08:28.687Z,7.00
2018-01-03T18:10:57.160Z,6.90
2018-01-03T18:13:25.845Z,6.90
2018-01-03T18:15:55.395Z,6.80
2018-01-03T18:18:24.017Z,6.80
2018-01-03T18:20:53.352Z,6.60
2018-01-03T18:23:22.551Z,6.60
2018-01-03T18:25:51.011Z,6.50
2018-01-03T18:28:20.007Z,6.60
2018-01-03T18:30:48.247Z,6.50
2018-01-03T18:33:16.479Z,6.60
2018-01-03T18:35:44.694Z,6.60
2018-01-03T18:38:12.918Z,6.60
2018-01-03T18:40:41.134Z,6.70
2018-01-03T18:43:09.383Z,6.80
2018-01-03T18:45:37.616Z,6.80
2018-01-03T18:48:06.106Z,6.90
2018-01-03T19:03:38.141Z,7.60
2018-01-03T19:06:06.369Z,7.60
2018-01-03T19:08:35.013Z,7.50
2018-01-03T19:11:04.021Z,7.40
2018-01-03T19:13:32.685Z,7.30
2018-01-03T19:16:01.694Z,7.10
2018-01-03T19:18:29.922Z,7.10
2018-01-03T19:20:58.153Z,7.00
2018-01-03T19:23:26.374Z,7.00
2018-01-03T19:25:54.598Z,6.90
2018-01-03T19:28:22.826Z,6.90
2018-01-03T19:30:51.042Z,6.90
2018-01-03T19:33:20.021Z,6.80
2018-01-03T19:35:49.002Z,6.80
2018-01-03T19:38:17.221Z,6.80
2018-01-03T19:40:45.764Z,6.80
2018-01-03T19:43:14.762Z,6.90
2018-01-03T19:45:44.057Z,6.90
2018-01-03T19:48:12.293Z,6.80
2018-01-03T19:50:40.510Z,6.90
2018-01-03T19:53:08.714Z,7.00
2018-01-03T19:55:36.947Z,7.00
2018-01-03T19:58:05.190Z,7.10
2018-01-03T20:00:33.414Z,7.20
2018-01-03T20:03:02.391Z,7.20
2018-01-03T20:05:31.389Z,7.20
2018-01-03T20:08:00.365Z,7.20
2018-01-03T20:10:28.585Z,7.20
2018-01-03T20:12:56.814Z,7.30
2018-01-03T20:15:25.039Z,7.30
2018-01-03T20:17:53.254Z,7.30
2018-01-03T20:20:21.480Z,7.30
2018-01-03T20:22:49.727Z,7.30
2018-01-03T20:25:18.710Z,7.30
2018-01-03T20:27:46.945Z,7.20
2018-01-03T20:30:15.154Z,7.20
2018-01-03T20:32:44.178Z,7.30
2018-01-03T20:35:12.394Z,7.20
2018-01-03T20:37:40.634Z,7.30
2018-01-03T20:40:08.846Z,7.30
2018-01-03T20:42:37.101Z,7.30
2018-01-03T20:45:05.310Z,7.30
2018-01-03T20:47:33.539Z,7.40
2018-01-03T20:50:01.763Z,7.40
2018-01-03T20:52:29.982Z,7.40
2018-01-03T20:54:58.210Z,7.40
2018-01-03T20:57:26.410Z,7.50
2018-01-03T20:59:55.396Z,7.50
2018-01-03T21:02:24.402Z,7.60
2018-01-03T21:04:53.367Z,7.60
2018-01-03T21:07:21.857Z,7.50
2018-01-03T21:09:50.841Z,7.60
2018-01-03T21:12:19.084Z,7.50
2018-01-03T21:14:47.305Z,7.60
2018-01-03T21:17:15.516Z,7.60
2018-01-03T21:19:44.057Z,7.70
2018-01-03T21:22:13.042Z,7.70
2018-01-03T21:24:41.261Z,7.70
2018-01-03T21:27:09.481Z,7.70
2018-01-03T21:29:37.717Z,7.70
2018-01-03T21:32:05.941Z,7.80
2018-01-03T21:34:34.161Z,7.80
2018-01-03T21:37:02.373Z,7.80
2018-01-03T21:39:30.617Z,7.80
2018-01-03T21:41:58.821Z,7.70
2018-01-03T21:44:27.062Z,7.70
2018-01-03T21:46:55.262Z,7.70
2018-01-03T21:49:23.483Z,7.60
2018-01-03T21:51:52.449Z,7.50
2018-01-03T21:54:20.678Z,7.50
2018-01-03T21:56:48.902Z,7.60
2018-01-03T21:59:17.113Z,7.60
2018-01-03T22:01:45.346Z,7.60
2018-01-03T22:04:13.549Z,7.70
2018-01-03T22:06:41.773Z,7.70
2018-01-03T22:09:09.981Z,7.70
2018-01-03T22:11:38.987Z,7.80
2018-01-03T22:14:07.959Z,7.80
2018-01-03T22:16:36.189Z,7.80
2018-01-03T22:19:04.393Z,7.80
2018-01-03T22:21:32.607Z,7.80
2018-01-03T22:24:00.822Z,7.80
2018-01-03T22:26:29.041Z,7.80
2018-01-03T22:28:58.033Z,7.80
2018-01-03T22:31:27.340Z,7.60
2018-01-03T22:33:56.333Z,7.60
2018-01-03T22:36:25.320Z,7.50
2018-01-03T22:38:53.526Z,7.50
2018-01-03T22:41:21.741Z,7.40
2018-01-03T22:43:51.566Z,7.30
2018-01-03T22:46:19.773Z,7.30
2018-01-03T22:48:47.997Z,7.30
2018-01-03T22:51:16.240Z,7.20
2018-01-03T22:53:44.454Z,7.20
2018-01-03T22:56:12.714Z,7.10
2018-01-03T22:58:40.890Z,7.10
2018-01-03T23:01:09.110Z,7.10
2018-01-03T23:03:37.327Z,7.00
2018-01-03T23:06:05.527Z,7.10
2018-01-03T23:08:33.717Z,7.10
2018-01-03T23:11:03.019Z,7.10
2018-01-03T23:13:31.997Z,7.00
2018-01-03T23:16:01.006Z,6.90
2018-01-03T23:18:29.209Z,6.80
2018-01-03T23:20:57.440Z,6.80
2018-01-03T23:23:26.433Z,6.70
2018-01-03T23:25:54.637Z,6.70
2018-01-03T23:28:22.860Z,6.70
2018-01-03T23:30:51.066Z,6.70
2018-01-03T23:33:20.056Z,6.60
2018-01-03T23:35:49.043Z,6.70
2018-01-03T23:38:17.529Z,6.60
2018-01-03T23:40:45.730Z,6.60
2018-01-03T23:43:14.888Z,6.60
2018-01-03T23:45:43.098Z,6.60
2018-01-03T23:48:11.317Z,6.70
2018-01-03T23:50:39.826Z,6.70
2018-01-03T23:53:08.081Z,6.80
2018-01-03T23:55:36.277Z,6.80
2018-01-03T23:58:05.261Z,6.90
